Time,TemperatureF,DewpointF,PressureIn,WindDirection,WindDirectionDegrees,WindSpeedMPH,WindSpeedGustMPH,Humidity,HourlyPrecipIn,Conditions,Clouds,dailyrainin,SoftwareType,DateUTC
2013-05-27 00:00:00,37.3,36.3,30.10,SSW,206,0.0,0.0,96,0.00,,,0.08,VWS V14.01,2013-05-27 04:00:00,
2013-05-27 00:01:00,37.3,36.3,30.10,SSW,206,0.0,0.0,96,0.00,,,0.08,VWS V14.01,2013-05-27 04:01:00,
2013-05-27 00:06:00,37.3,36.3,30.10,SSW,206,0.0,0.0,96,0.00,,,0.00,VWS V14.01,2013-05-27 04:06:00,
2013-05-27 00:11:00,37.4,36.4,30.10,SSW,206,0.0,1.0,96,0.00,,,0.00,VWS V14.01,2013-05-27 04:11:00,
2013-05-27 00:16:00,37.4,36.4,30.10,SSW,206,0.0,0.0,96,0.00,,,0.00,VWS V14.01,2013-05-27 04:16:00,
2013-05-27 00:21:00,37.4,36.4,30.09,SSW,206,0.0,0.0,96,0.00,,,0.00,VWS V14.01,2013-05-27 04:21:00,
2013-05-27 00:26:00,37.4,36.4,30.09,SSW,206,0.0,0.0,96,0.00,,,0.00,VWS V14.01,2013-05-27 04:26:00,
2013-05-27 00:31:00,37.6,36.6,30.09,SSW,206,0.0,0.0,96,0.00,,,0.00,VWS V14.01,2013-05-27 04:31:00,
2013-05-27 00:36:00,37.5,36.5,30.09,SSW,206,0.0,0.0,96,0.00,,,0.00,VWS V14.01,2013-05-27 04:36:00,
2013-05-27 00:41:00,37.5,36.5,30.09,SW,215,0.0,3.0,96,0.00,,,0.00,VWS V14.01,2013-05-27 04:41:00,
2013-05-27 00:46:00,37.4,36.4,30.09,SW,215,0.0,1.0,96,0.00,,,0.00,VWS V14.01,2013-05-27 04:46:00,
2013-05-27 00:51:00,37.9,37.1,30.09,SW,215,0.0,2.0,97,0.00,,,0.00,VWS V14.01,2013-05-27 04:51:00,
2013-05-27 00:56:00,38.3,37.5,30.09,SW,215,0.0,0.0,97,0.00,,,0.00,VWS V14.01,2013-05-27 04:56:00,
2013-05-27 01:01:00,38.5,37.7,30.09,SW,215,0.0,1.0,97,0.00,,,0.00,VWS V14.01,2013-05-27 05:01:00,
2013-05-27 01:06:00,38.6,37.8,30.09,SW,215,0.0,1.0,97,0.00,,,0.00,VWS V14.01,2013-05-27 05:06:00,
2013-05-27 01:11:00,38.6,37.8,30.09,NW,307,0.0,3.0,97,0.00,,,0.00,VWS V14.01,2013-05-27 05:11:00,
2013-05-27 01:16:00,38.2,37.2,30.09,NW,307,0.0,0.0,96,0.00,,,0.00,VWS V14.01,2013-05-27 05:16:00,
2013-05-27 01:21:00,38.1,37.1,30.09,NW,307,0.0,0.0,96,0.00,,,0.00,VWS V14.01,2013-05-27 05:21:00,
2013-05-27 01:26:00,38.0,37.0,30.09,NW,307,0.0,0.0,96,0.00,,,0.00,VWS V14.01,2013-05-27 05:26:00,
2013-05-27 01:31:00,37.8,36.8,30.09,NW,307,0.0,1.0,96,0.00,,,0.00,VWS V14.01,2013-05-27 05:31:00,
2013-05-27 01:36:00,37.7,36.7,30.08,NW,307,0.0,0.0,96,0.00,,,0.00,VWS V14.01,2013-05-27 05:36:00,
2013-05-27 01:41:00,37.7,36.7,30.08,NW,307,0.0,0.0,96,0.00,,,0.00,VWS V14.01,2013-05-27 05:41:00,
2013-05-27 01:46:00,37.9,36.9,30.08,NW,307,0.0,0.0,96,0.00,,,0.00,VWS V14.01,2013-05-27 05:46:00,
2013-05-27 01:51:00,38.0,37.0,30.08,NW,307,0.0,1.0,96,0.00,,,0.00,VWS V14.01,2013-05-27 05:51:00,
2013-05-27 01:56:00,37.8,36.8,30.08,NW,307,0.0,2.0,96,0.00,,,0.00,VWS V14.01,2013-05-27 05:56:00,
2013-05-27 02:01:00,38.0,37.0,30.08,NW,307,0.0,2.0,96,0.00,,,0.00,VWS V14.01,2013-05-27 06:01:00,
2013-05-27 02:06:00,38.0,37.0,30.08,NW,307,0.0,2.0,96,0.00,,,0.00,VWS V14.01,2013-05-27 06:06:00,
2013-05-27 02:11:00,38.0,36.7,30.08,NW,307,0.0,2.0,95,0.00,,,0.00,VWS V14.01,2013-05-27 06:11:00,
2013-05-27 02:16:00,37.9,36.6,30.08,NW,307,0.0,0.0,95,0.00,,,0.00,VWS V14.01,2013-05-27 06:16:00,
2013-05-27 02:21:00,37.8,36.5,30.08,NW,307,0.0,1.0,95,0.00,,,0.00,VWS V14.01,2013-05-27 06:21:00,
2013-05-27 02:26:00,37.9,36.6,30.08,NW,307,0.0,0.0,95,0.00,,,0.00,VWS V14.01,2013-05-27 06:26:00,
2013-05-27 02:31:00,37.9,36.6,30.08,NW,307,0.0,1.0,95,0.00,,,0.00,VWS V14.01,2013-05-27 06:31:00,
2013-05-27 02:36:00,38.1,36.8,30.08,NW,307,0.0,0.0,95,0.00,,,0.00,VWS V14.01,2013-05-27 06:36:00,
2013-05-27 02:41:00,38.0,36.7,30.08,NW,307,0.0,2.0,95,0.00,,,0.00,VWS V14.01,2013-05-27 06:41:00,
2013-05-27 02:46:00,38.2,37.2,30.08,SSW,207,3.0,3.0,96,0.00,,,0.00,VWS V14.01,2013-05-27 06:46:00,
2013-05-27 02:51:00,38.4,37.4,30.08,SSW,207,0.0,3.0,96,0.00,,,0.00,VWS V14.01,2013-05-27 06:51:00,
2013-05-27 02:56:00,38.5,37.2,30.08,SSW,207,0.0,0.0,95,0.00,,,0.00,VWS V14.01,2013-05-27 06:56:00,
2013-05-27 03:01:00,38.7,37.4,30.08,SSW,207,0.0,1.0,95,0.00,,,0.00,VWS V14.01,2013-05-27 07:01:00,
2013-05-27 03:06:00,38.9,37.6,30.09,SSW,207,0.0,3.0,95,0.00,,,0.00,VWS V14.01,2013-05-27 07:06:00,
2013-05-27 03:11:00,39.0,37.4,30.08,SSW,207,1.0,3.0,94,0.00,,,0.00,VWS V14.01,2013-05-27 07:11:00,
2013-05-27 03:16:00,39.3,37.7,30.09,SW,219,3.0,5.0,94,0.00,,,0.00,VWS V14.01,2013-05-27 07:16:00,
2013-05-27 03:21:00,39.5,37.7,30.09,SW,219,0.0,5.0,93,0.00,,,0.00,VWS V14.01,2013-05-27 07:21:00,
2013-05-27 03:26:00,39.4,37.5,30.09,SW,219,0.0,0.0,93,0.00,,,0.00,VWS V14.01,2013-05-27 07:26:00,
2013-05-27 03:31:00,39.6,37.5,30.09,SW,219,0.0,3.0,92,0.00,,,0.00,VWS V14.01,2013-05-27 07:31:00,
2013-05-27 03:36:00,39.7,37.6,30.09,SW,219,0.0,1.0,92,0.00,,,0.00,VWS V14.01,2013-05-27 07:36:00,
2013-05-27 03:41:00,39.8,37.7,30.09,SSW,209,2.0,2.0,92,0.00,,,0.00,VWS V14.01,2013-05-27 07:41:00,
2013-05-27 03:46:00,39.8,37.7,30.09,SSW,209,0.0,0.0,92,0.00,,,0.00,VWS V14.01,2013-05-27 07:46:00,
2013-05-27 03:51:00,40.0,37.9,30.09,SSW,209,1.0,2.0,92,0.00,,,0.00,VWS V14.01,2013-05-27 07:51:00,
2013-05-27 03:56:00,39.9,37.5,30.10,SSW,209,0.0,0.0,91,0.00,,,0.00,VWS V14.01,2013-05-27 07:56:00,
2013-05-27 04:01:00,39.9,37.5,30.10,SSW,209,0.0,2.0,91,0.00,,,0.00,VWS V14.01,2013-05-27 08:01:00,
2013-05-27 04:06:00,39.8,37.4,30.10,SSW,209,0.0,2.0,91,0.00,,,0.00,VWS V14.01,2013-05-27 08:06:00,
2013-05-27 04:11:00,39.8,37.4,30.10,SSE,161,0.0,2.0,91,0.00,,,0.00,VWS V14.01,2013-05-27 08:11:00,
2013-05-27 04:16:00,40.0,37.6,30.10,SSE,161,0.0,0.0,91,0.00,,,0.00,VWS V14.01,2013-05-27 08:16:00,
2013-05-27 04:21:00,40.1,37.4,30.10,SSE,161,0.0,1.0,90,0.00,,,0.00,VWS V14.01,2013-05-27 08:21:00,
2013-05-27 04:26:00,40.3,37.6,30.10,SSE,161,0.0,1.0,90,0.00,,,0.00,VWS V14.01,2013-05-27 08:26:00,
2013-05-27 04:31:00,40.4,37.7,30.11,SSE,161,0.0,1.0,90,0.00,,,0.00,VWS V14.01,2013-05-27 08:31:00,
2013-05-27 04:36:00,40.4,37.4,30.11,SW,231,1.0,1.0,89,0.00,,,0.00,VWS V14.01,2013-05-27 08:36:00,
2013-05-27 04:41:00,40.6,37.6,30.11,SE,139,0.0,4.0,89,0.00,,,0.00,VWS V14.01,2013-05-27 08:41:00,
2013-05-27 04:46:00,40.6,37.6,30.12,South,182,2.0,7.0,89,0.00,,,0.00,VWS V14.01,2013-05-27 08:46:00,
2013-05-27 04:51:00,40.7,37.4,30.11,South,182,0.0,7.0,88,0.00,,,0.00,VWS V14.01,2013-05-27 08:51:00,
2013-05-27 04:56:00,40.6,37.6,30.12,South,182,0.0,0.0,89,0.00,,,0.00,VWS V14.01,2013-05-27 08:56:00,
2013-05-27 05:01:00,40.5,37.5,30.12,South,182,0.0,2.0,89,0.00,,,0.00,VWS V14.01,2013-05-27 09:01:00,
2013-05-27 05:06:00,40.5,37.5,30.12,South,182,0.0,1.0,89,0.00,,,0.00,VWS V14.01,2013-05-27 09:06:00,
2013-05-27 05:11:00,40.7,37.4,30.12,SW,220,0.0,2.0,88,0.00,,,0.00,VWS V14.01,2013-05-27 09:11:00,
2013-05-27 05:16:00,40.6,37.6,30.12,SW,220,0.0,0.0,89,0.00,,,0.00,VWS V14.01,2013-05-27 09:16:00,
2013-05-27 05:21:00,40.5,37.5,30.13,SW,220,0.0,2.0,89,0.00,,,0.00,VWS V14.01,2013-05-27 09:21:00,
2013-05-27 05:26:00,40.3,37.3,30.13,SW,221,0.0,1.0,89,0.00,,,0.00,VWS V14.01,2013-05-27 09:26:00,
2013-05-27 05:31:00,40.2,37.2,30.12,SW,221,0.0,1.0,89,0.00,,,0.00,VWS V14.01,2013-05-27 09:31:00,
2013-05-27 05:36:00,40.2,37.5,30.13,SSW,213,3.0,3.0,90,0.00,,,0.00,VWS V14.01,2013-05-27 09:36:00,
2013-05-27 05:41:00,40.5,37.5,30.13,South,190,0.0,7.0,89,0.00,,,0.00,VWS V14.01,2013-05-27 09:41:00,
2013-05-27 05:46:00,40.7,37.1,30.13,SSW,212,0.0,4.0,87,0.00,,,0.00,VWS V14.01,2013-05-27 09:46:00,
2013-05-27 05:51:00,41.0,37.4,30.13,SSW,207,1.0,4.0,87,0.00,,,0.00,VWS V14.01,2013-05-27 09:51:00,
2013-05-27 05:56:00,41.2,37.6,30.13,SSW,212,2.0,3.0,87,0.00,,,0.00,VWS V14.01,2013-05-27 09:56:00,
2013-05-27 06:01:00,41.2,37.9,30.14,SSW,207,2.0,4.0,88,0.00,,,0.00,VWS V14.01,2013-05-27 10:01:00,
2013-05-27 06:06:00,41.0,37.7,30.14,SW,214,2.0,3.0,88,0.00,,,0.00,VWS V14.01,2013-05-27 10:06:00,
2013-05-27 06:11:00,41.1,37.8,30.14,SW,227,0.0,4.0,88,0.00,,,0.00,VWS V14.01,2013-05-27 10:11:00,
2013-05-27 06:16:00,41.2,37.9,30.14,SW,227,0.0,0.0,88,0.00,,,0.00,VWS V14.01,2013-05-27 10:16:00,
2013-05-27 06:21:00,41.8,37.6,30.14,SW,215,1.0,4.0,85,0.00,,,0.00,VWS V14.01,2013-05-27 10:21:00,
2013-05-27 06:26:00,42.2,37.7,30.14,SSE,157,0.0,3.0,84,0.00,,,0.00,VWS V14.01,2013-05-27 10:26:00,
2013-05-27 06:31:00,42.6,37.8,30.15,WSW,256,0.0,8.0,83,0.00,,,0.00,VWS V14.01,2013-05-27 10:31:00,
2013-05-27 06:36:00,42.9,37.8,30.15,SSW,195,0.0,4.0,82,0.00,,,0.00,VWS V14.01,2013-05-27 10:36:00,
2013-05-27 06:41:00,42.9,37.5,30.15,SW,223,1.0,4.0,81,0.00,,,0.00,VWS V14.01,2013-05-27 10:41:00,
2013-05-27 06:46:00,42.9,38.1,30.15,WNW,285,3.0,6.0,83,0.00,,,0.00,VWS V14.01,2013-05-27 10:46:00,
2013-05-27 06:51:00,43.1,37.7,30.15,SSW,205,4.0,6.0,81,0.00,,,0.00,VWS V14.01,2013-05-27 10:51:00,
2013-05-27 06:56:00,43.4,38.0,30.16,WSW,248,2.0,2.0,81,0.00,,,0.00,VWS V14.01,2013-05-27 10:56:00,
2013-05-27 07:01:00,43.3,38.2,30.16,WSW,245,1.0,7.0,82,0.00,,,0.00,VWS V14.01,2013-05-27 11:01:00,
2013-05-27 07:06:00,43.3,38.2,30.16,NW,316,2.0,4.0,82,0.00,,,0.00,VWS V14.01,2013-05-27 11:06:00,
2013-05-27 07:10:00,43.7,37.6,30.16,WSW,242,0.0,5.0,79,0.00,,,0.00,VWS V14.01,2013-05-27 11:10:00,
2013-05-27 07:15:00,43.9,38.5,30.16,WSW,242,3.0,3.0,81,0.00,,,0.00,VWS V14.01,2013-05-27 11:15:00,
2013-05-27 07:20:00,43.9,38.1,30.16,WSW,242,0.0,3.0,80,0.00,,,0.00,VWS V14.01,2013-05-27 11:20:00,
2013-05-27 07:25:00,44.1,38.0,30.16,WSW,250,0.0,0.0,79,0.00,,,0.00,VWS V14.01,2013-05-27 11:25:00,
2013-05-27 07:30:00,44.5,38.4,30.16,NNW,347,0.0,3.0,79,0.00,,,0.00,VWS V14.01,2013-05-27 11:30:00,
2013-05-27 07:35:00,44.9,38.1,30.17,WSW,252,3.0,3.0,77,0.00,,,0.00,VWS V14.01,2013-05-27 11:35:00,
2013-05-27 07:40:00,45.2,38.1,30.17,NNW,329,5.0,8.0,76,0.00,,,0.00,VWS V14.01,2013-05-27 11:40:00,
2013-05-27 07:45:00,45.5,38.4,30.17,West,271,0.0,2.0,76,0.00,,,0.00,VWS V14.01,2013-05-27 11:45:00,
2013-05-27 07:50:00,45.9,38.8,30.17,WSW,246,0.0,3.0,76,0.00,,,0.00,VWS V14.01,2013-05-27 11:50:00,
2013-05-27 07:55:00,46.3,38.1,30.17,West,279,3.0,3.0,73,0.00,,,0.00,VWS V14.01,2013-05-27 11:55:00,
2013-05-27 08:00:00,46.6,38.4,30.17,NNW,327,0.0,6.0,73,0.00,,,0.00,VWS V14.01,2013-05-27 12:00:00,
2013-05-27 08:05:00,46.8,38.3,30.17,NW,311,0.0,2.0,72,0.00,,,0.00,VWS V14.01,2013-05-27 12:05:00,
2013-05-27 08:10:00,47.0,38.8,30.17,NW,308,0.0,2.0,73,0.00,,,0.00,VWS V14.01,2013-05-27 12:10:00,
2013-05-27 08:15:00,47.4,38.8,30.17,West,280,0.0,2.0,72,0.00,,,0.00,VWS V14.01,2013-05-27 12:15:00,
2013-05-27 08:20:00,47.7,38.8,30.18,WNW,284,0.0,5.0,71,0.00,,,0.00,VWS V14.01,2013-05-27 12:20:00,
2013-05-27 08:25:00,47.9,38.6,30.18,NW,306,1.0,5.0,70,0.00,,,0.00,VWS V14.01,2013-05-27 12:25:00,
2013-05-27 08:30:00,48.2,38.5,30.17,NNW,333,2.0,5.0,69,0.00,,,0.00,VWS V14.01,2013-05-27 12:30:00,
2013-05-27 08:35:00,48.6,38.5,30.18,NW,315,0.0,2.0,68,0.00,,,0.00,VWS V14.01,2013-05-27 12:35:00,
2013-05-27 08:40:00,48.8,37.6,30.18,NW,323,3.0,7.0,65,0.00,,,0.00,VWS V14.01,2013-05-27 12:40:00,
2013-05-27 08:45:00,49.1,37.5,30.18,WNW,286,4.0,5.0,64,0.00,,,0.00,VWS V14.01,2013-05-27 12:45:00,
2013-05-27 08:50:00,49.4,37.8,30.18,NW,322,1.0,7.0,64,0.00,,,0.00,VWS V14.01,2013-05-27 12:50:00,
2013-05-27 08:55:00,49.6,38.3,30.18,NNW,346,0.0,0.0,65,0.00,,,0.00,VWS V14.01,2013-05-27 12:55:00,
2013-05-27 09:00:00,50.1,38.4,30.18,NNW,333,0.0,3.0,64,0.00,,,0.00,VWS V14.01,2013-05-27 13:00:00,
2013-05-27 09:05:00,50.1,37.2,30.18,West,269,0.0,4.0,61,0.00,,,0.00,VWS V14.01,2013-05-27 13:05:00,
2013-05-27 09:10:00,50.1,37.6,30.18,NW,307,2.0,5.0,62,0.00,,,0.00,VWS V14.01,2013-05-27 13:10:00,
2013-05-27 09:15:00,50.2,36.9,30.18,NW,304,0.0,5.0,60,0.00,,,0.00,VWS V14.01,2013-05-27 13:15:00,
2013-05-27 09:20:00,50.5,37.2,30.18,NNW,329,4.0,7.0,60,0.00,,,0.00,VWS V14.01,2013-05-27 13:20:00,
2013-05-27 09:25:00,50.5,36.7,30.18,NW,323,0.0,3.0,59,0.00,,,0.00,VWS V14.01,2013-05-27 13:25:00,
2013-05-27 09:30:00,50.8,38.3,30.18,SW,228,0.0,3.0,62,0.00,,,0.00,VWS V14.01,2013-05-27 13:30:00,
2013-05-27 09:35:00,51.1,36.4,30.18,NW,308,0.0,3.0,57,0.00,,,0.00,VWS V14.01,2013-05-27 13:35:00,
2013-05-27 09:40:00,51.2,37.8,30.18,West,280,0.0,6.0,60,0.00,,,0.00,VWS V14.01,2013-05-27 13:40:00,
2013-05-27 09:45:00,51.4,37.1,30.18,NNW,344,0.0,1.0,58,0.00,,,0.00,VWS V14.01,2013-05-27 13:45:00,
2013-05-27 09:50:00,51.8,38.8,30.18,SW,219,0.0,4.0,61,0.00,,,0.00,VWS V14.01,2013-05-27 13:50:00,
2013-05-27 09:55:00,52.2,38.3,30.18,West,276,1.0,4.0,59,0.00,,,0.00,VWS V14.01,2013-05-27 13:55:00,
2013-05-27 10:00:00,52.2,37.0,30.18,North,355,4.0,5.0,56,0.00,,,0.00,VWS V14.01,2013-05-27 14:00:00,
2013-05-27 10:05:00,52.4,36.3,30.18,WNW,300,5.0,5.0,54,0.00,,,0.00,VWS V14.01,2013-05-27 14:05:00,
2013-05-27 10:10:00,52.7,36.5,30.18,NNW,340,3.0,8.0,54,0.00,,,0.00,VWS V14.01,2013-05-27 14:10:00,
2013-05-27 10:15:00,53.0,37.3,30.18,SW,234,0.0,5.0,55,0.00,,,0.00,VWS V14.01,2013-05-27 14:15:00,
2013-05-27 10:20:00,53.2,36.5,30.18,NW,319,0.0,7.0,53,0.00,,,0.00,VWS V14.01,2013-05-27 14:20:00,
2013-05-27 10:25:00,53.1,36.0,30.18,WNW,284,1.0,7.0,52,0.00,,,0.00,VWS V14.01,2013-05-27 14:25:00,
2013-05-27 10:30:00,53.6,36.4,30.18,NW,318,1.0,7.0,52,0.00,,,0.00,VWS V14.01,2013-05-27 14:30:00,
2013-05-27 10:35:00,53.8,37.1,30.18,NNW,333,5.0,5.0,53,0.00,,,0.00,VWS V14.01,2013-05-27 14:35:00,
2013-05-27 10:40:00,53.7,37.0,30.19,North,350,0.0,9.0,53,0.00,,,0.00,VWS V14.01,2013-05-27 14:40:00,
2013-05-27 10:45:00,53.9,36.2,30.19,NNW,331,2.0,11.0,51,0.00,,,0.00,VWS V14.01,2013-05-27 14:45:00,
2013-05-27 10:50:00,54.0,34.2,30.19,WNW,291,4.0,15.0,47,0.00,,,0.00,VWS V14.01,2013-05-27 14:50:00,
2013-05-27 10:55:00,54.2,34.4,30.18,NNW,342,9.0,10.0,47,0.00,,,0.00,VWS V14.01,2013-05-27 14:55:00,
2013-05-27 11:00:00,54.2,33.3,30.18,North,355,2.0,13.0,45,0.00,,,0.00,VWS V14.01,2013-05-27 15:00:00,
2013-05-27 11:05:00,54.5,33.0,30.18,NNW,339,3.0,10.0,44,0.00,,,0.00,VWS V14.01,2013-05-27 15:05:00,
2013-05-27 11:10:00,54.2,32.2,30.18,North,355,4.0,16.0,43,0.00,,,0.00,VWS V14.01,2013-05-27 15:10:00,
2013-05-27 11:15:00,54.8,33.3,30.18,NW,307,10.0,16.0,44,0.00,,,0.00,VWS V14.01,2013-05-27 15:15:00,
2013-05-27 11:20:00,54.8,33.3,30.18,NW,318,9.0,16.0,44,0.00,,,0.00,VWS V14.01,2013-05-27 15:20:00,
2013-05-27 11:25:00,54.8,32.2,30.18,North,355,7.0,10.0,42,0.00,,,0.00,VWS V14.01,2013-05-27 15:25:00,
2013-05-27 11:30:00,55.0,34.1,30.18,NNW,345,6.0,12.0,45,0.00,,,0.00,VWS V14.01,2013-05-27 15:30:00,
2013-05-27 11:35:00,55.3,34.3,30.18,North,360,8.0,8.0,45,0.00,,,0.00,VWS V14.01,2013-05-27 15:35:00,
2013-05-27 11:40:00,55.3,33.8,30.18,North,355,5.0,16.0,44,0.00,,,0.00,VWS V14.01,2013-05-27 15:40:00,
2013-05-27 11:45:00,55.3,34.3,30.18,NNW,348,1.0,6.0,45,0.00,,,0.00,VWS V14.01,2013-05-27 15:45:00,
2013-05-27 11:50:00,56.2,36.3,30.18,NNW,343,7.0,9.0,47,0.00,,,0.00,VWS V14.01,2013-05-27 15:50:00,
2013-05-27 11:55:00,56.2,36.8,30.18,North,5,7.0,9.0,48,0.00,,,0.00,VWS V14.01,2013-05-27 15:55:00,
2013-05-27 12:00:00,56.3,35.8,30.18,NW,323,11.0,17.0,46,0.00,,,0.00,VWS V14.01,2013-05-27 16:00:00,
2013-05-27 12:05:00,56.4,34.8,30.18,NW,311,5.0,9.0,44,0.00,,,0.00,VWS V14.01,2013-05-27 16:05:00,
2013-05-27 12:10:00,56.3,34.7,30.18,NNW,341,15.0,15.0,44,0.00,,,0.00,VWS V14.01,2013-05-27 16:10:00,
2013-05-27 12:15:00,56.3,35.8,30.18,NNW,348,11.0,11.0,46,0.00,,,0.00,VWS V14.01,2013-05-27 16:15:00,
2013-05-27 12:20:00,56.0,33.2,30.18,NNE,17,7.0,17.0,42,0.00,,,0.00,VWS V14.01,2013-05-27 16:20:00,
2013-05-27 12:25:00,55.9,33.8,30.17,NNW,329,5.0,9.0,43,0.00,,,0.00,VWS V14.01,2013-05-27 16:25:00,
2013-05-27 12:30:00,56.7,35.0,30.17,NW,306,3.0,12.0,44,0.00,,,0.00,VWS V14.01,2013-05-27 16:30:00,
2013-05-27 12:35:00,57.1,34.2,30.17,NNW,327,13.0,17.0,42,0.00,,,0.00,VWS V14.01,2013-05-27 16:35:00,
2013-05-27 12:40:00,56.8,34.6,30.17,NNW,343,7.0,17.0,43,0.00,,,0.00,VWS V14.01,2013-05-27 16:40:00,
2013-05-27 12:45:00,57.3,35.0,30.17,NNW,336,5.0,5.0,43,0.00,,,0.00,VWS V14.01,2013-05-27 16:45:00,
2013-05-27 12:50:00,57.9,36.1,30.16,NW,315,4.0,11.0,44,0.00,,,0.00,VWS V14.01,2013-05-27 16:50:00,
2013-05-27 12:55:00,58.3,35.3,30.17,NW,324,5.0,7.0,42,0.00,,,0.00,VWS V14.01,2013-05-27 16:55:00,
2013-05-27 13:00:00,58.3,35.9,30.16,NNW,346,6.0,10.0,43,0.00,,,0.00,VWS V14.01,2013-05-27 17:00:00,
2013-05-27 13:05:00,58.3,34.7,30.16,West,279,6.0,8.0,41,0.00,,,0.00,VWS V14.01,2013-05-27 17:05:00,
2013-05-27 13:10:00,58.3,34.7,30.16,NNW,348,10.0,14.0,41,0.00,,,0.00,VWS V14.01,2013-05-27 17:10:00,
2013-05-27 13:15:00,57.8,33.0,30.16,NNW,331,7.0,8.0,39,0.00,,,0.00,VWS V14.01,2013-05-27 17:15:00,
2013-05-27 13:20:00,58.3,34.7,30.16,West,280,4.0,10.0,41,0.00,,,0.00,VWS V14.01,2013-05-27 17:20:00,
2013-05-27 13:25:00,58.5,34.3,30.16,NW,322,5.0,7.0,40,0.00,,,0.00,VWS V14.01,2013-05-27 17:25:00,
2013-05-27 13:30:00,58.6,34.4,30.16,North,360,10.0,13.0,40,0.00,,,0.00,VWS V14.01,2013-05-27 17:30:00,
2013-05-27 13:35:00,58.1,33.9,30.16,NNW,333,4.0,5.0,40,0.00,,,0.00,VWS V14.01,2013-05-27 17:35:00,
2013-05-27 13:40:00,58.5,34.3,30.15,NNW,338,1.0,9.0,40,0.00,,,0.00,VWS V14.01,2013-05-27 17:40:00,
2013-05-27 13:45:00,59.2,34.9,30.15,NNE,30,4.0,4.0,40,0.00,,,0.00,VWS V14.01,2013-05-27 17:45:00,
2013-05-27 13:50:00,59.8,34.2,30.15,NW,314,4.0,9.0,38,0.00,,,0.00,VWS V14.01,2013-05-27 17:50:00,
2013-05-27 13:55:00,59.3,34.4,30.15,NNE,22,6.0,15.0,39,0.00,,,0.00,VWS V14.01,2013-05-27 17:55:00,
2013-05-27 14:00:00,59.2,35.5,30.16,NNW,333,7.0,15.0,41,0.00,,,0.00,VWS V14.01,2013-05-27 18:00:00,
2013-05-27 14:05:00,59.8,37.3,30.15,North,355,8.0,9.0,43,0.00,,,0.00,VWS V14.01,2013-05-27 18:05:00,
2013-05-27 14:10:00,59.7,34.7,30.15,North,360,7.0,15.0,39,0.00,,,0.00,VWS V14.01,2013-05-27 18:10:00,
2013-05-27 14:15:00,59.7,32.7,30.15,NNW,332,3.0,3.0,36,0.00,,,0.00,VWS V14.01,2013-05-27 18:15:00,
2013-05-27 14:20:00,59.9,34.2,30.15,North,10,7.0,12.0,38,0.00,,,0.00,VWS V14.01,2013-05-27 18:20:00,
2013-05-27 14:25:00,60.2,35.8,30.15,NNW,344,1.0,1.0,40,0.00,,,0.00,VWS V14.01,2013-05-27 18:25:00,
2013-05-27 14:30:00,60.5,32.7,30.15,NNE,15,5.0,15.0,35,0.00,,,0.00,VWS V14.01,2013-05-27 18:30:00,
2013-05-27 14:35:00,59.8,33.5,30.15,NW,315,7.0,7.0,37,0.00,,,0.00,VWS V14.01,2013-05-27 18:35:00,
2013-05-27 14:40:00,60.1,35.1,30.15,NNW,338,5.0,13.0,39,0.00,,,0.00,VWS V14.01,2013-05-27 18:40:00,
2013-05-27 14:45:00,60.7,35.0,30.15,NW,326,8.0,10.0,38,0.00,,,0.00,VWS V14.01,2013-05-27 18:45:00,
2013-05-27 14:50:00,60.4,33.3,30.15,NW,325,5.0,13.0,36,0.00,,,0.00,VWS V14.01,2013-05-27 18:50:00,
2013-05-27 14:55:00,60.5,34.1,30.14,NNE,20,0.0,0.0,37,0.00,,,0.00,VWS V14.01,2013-05-27 18:55:00,
2013-05-27 15:00:00,60.9,35.1,30.14,NNW,333,7.0,11.0,38,0.00,,,0.00,VWS V14.01,2013-05-27 19:00:00,
2013-05-27 15:05:00,61.4,36.9,30.14,NNW,327,5.0,11.0,40,0.00,,,0.00,VWS V14.01,2013-05-27 19:05:00,
2013-05-27 15:10:00,60.9,35.1,30.14,NNE,13,0.0,16.0,38,0.00,,,0.00,VWS V14.01,2013-05-27 19:10:00,
2013-05-27 15:15:00,61.3,34.1,30.15,West,274,6.0,6.0,36,0.00,,,0.00,VWS V14.01,2013-05-27 19:15:00,
2013-05-27 15:20:00,61.3,36.8,30.14,NNW,331,1.0,8.0,40,0.00,,,0.00,VWS V14.01,2013-05-27 19:20:00,
2013-05-27 15:25:00,61.3,34.1,30.14,NNW,342,6.0,7.0,36,0.00,,,0.00,VWS V14.01,2013-05-27 19:25:00,
2013-05-27 15:30:00,61.3,34.1,30.14,North,355,9.0,13.0,36,0.00,,,0.00,VWS V14.01,2013-05-27 19:30:00,
2013-05-27 15:35:00,61.4,34.2,30.15,NW,315,0.0,0.0,36,0.00,,,0.00,VWS V14.01,2013-05-27 19:35:00,
2013-05-27 15:40:00,61.2,33.3,30.14,NNW,342,7.0,15.0,35,0.00,,,0.00,VWS V14.01,2013-05-27 19:40:00,
2013-05-27 15:45:00,61.4,35.6,30.14,NNW,348,3.0,5.0,38,0.00,,,0.00,VWS V14.01,2013-05-27 19:45:00,
2013-05-27 15:50:00,62.0,36.1,30.14,NE,48,4.0,14.0,38,0.00,,,0.00,VWS V14.01,2013-05-27 19:50:00,
2013-05-27 15:55:00,62.3,35.0,30.14,NNW,335,5.0,7.0,36,0.00,,,0.00,VWS V14.01,2013-05-27 19:55:00,
2013-05-27 16:00:00,61.9,36.7,30.14,NNW,348,2.0,13.0,39,0.00,,,0.00,VWS V14.01,2013-05-27 20:00:00,
2013-05-27 16:05:00,62.2,35.6,30.14,NW,320,2.0,13.0,37,0.00,,,0.00,VWS V14.01,2013-05-27 20:05:00,
2013-05-27 16:10:00,62.1,35.5,30.14,NNW,338,6.0,12.0,37,0.00,,,0.00,VWS V14.01,2013-05-27 20:10:00,
2013-05-27 16:15:00,61.7,34.5,30.14,North,5,9.0,18.0,36,0.00,,,0.00,VWS V14.01,2013-05-27 20:15:00,
2013-05-27 16:20:00,61.5,34.3,30.14,North,350,10.0,14.0,36,0.00,,,0.00,VWS V14.01,2013-05-27 20:20:00,
2013-05-27 16:25:00,61.4,34.9,30.14,NW,319,5.0,14.0,37,0.00,,,0.00,VWS V14.01,2013-05-27 20:25:00,
2013-05-27 16:30:00,61.7,35.9,30.14,NNW,346,2.0,10.0,38,0.00,,,0.00,VWS V14.01,2013-05-27 20:30:00,
2013-05-27 16:35:00,62.0,38.7,30.14,NNW,331,0.0,0.0,42,0.00,,,0.00,VWS V14.01,2013-05-27 20:35:00,
2013-05-27 16:40:00,62.6,36.0,30.14,NNW,342,7.0,12.0,37,0.00,,,0.00,VWS V14.01,2013-05-27 20:40:00,
2013-05-27 16:45:00,62.5,39.1,30.14,North,349,4.0,4.0,42,0.00,,,0.00,VWS V14.01,2013-05-27 20:45:00,
2013-05-27 16:50:00,62.1,34.2,30.14,NNW,341,3.0,16.0,35,0.00,,,0.00,VWS V14.01,2013-05-27 20:50:00,
2013-05-27 16:55:00,62.0,34.8,30.14,North,360,0.0,0.0,36,0.00,,,0.00,VWS V14.01,2013-05-27 20:55:00,
2013-05-27 17:00:00,62.5,35.9,30.14,NNW,346,0.0,7.0,37,0.00,,,0.00,VWS V14.01,2013-05-27 21:00:00,
2013-05-27 17:05:00,62.9,36.2,30.14,WNW,290,3.0,10.0,37,0.00,,,0.00,VWS V14.01,2013-05-27 21:05:00,
2013-05-27 17:10:00,62.7,35.4,30.14,North,5,6.0,14.0,36,0.00,,,0.00,VWS V14.01,2013-05-27 21:10:00,
2013-05-27 17:15:00,62.3,35.0,30.14,NNW,333,10.0,10.0,36,0.00,,,0.00,VWS V14.01,2013-05-27 21:15:00,
2013-05-27 17:20:00,62.2,36.3,30.14,WNW,302,6.0,10.0,38,0.00,,,0.00,VWS V14.01,2013-05-27 21:20:00,
2013-05-27 17:25:00,62.5,37.2,30.14,NNW,338,5.0,10.0,39,0.00,,,0.00,VWS V14.01,2013-05-27 21:25:00,
2013-05-27 17:30:00,62.3,35.0,30.14,North,9,4.0,11.0,36,0.00,,,0.00,VWS V14.01,2013-05-27 21:30:00,
2013-05-27 17:35:00,62.1,35.5,30.14,North,349,6.0,14.0,37,0.00,,,0.00,VWS V14.01,2013-05-27 21:35:00,
2013-05-27 17:40:00,62.4,36.5,30.14,NNW,339,3.0,6.0,38,0.00,,,0.00,VWS V14.01,2013-05-27 21:40:00,
2013-05-27 17:45:00,62.6,36.7,30.14,North,350,0.0,6.0,38,0.00,,,0.00,VWS V14.01,2013-05-27 21:45:00,
2013-05-27 17:50:00,62.3,36.4,30.14,North,350,0.0,10.0,38,0.00,,,0.00,VWS V14.01,2013-05-27 21:50:00,
2013-05-27 17:55:00,62.4,35.8,30.14,North,360,5.0,10.0,37,0.00,,,0.00,VWS V14.01,2013-05-27 21:55:00,
2013-05-27 18:00:00,61.8,35.3,30.14,NNW,334,5.0,12.0,37,0.00,,,0.00,VWS V14.01,2013-05-27 22:00:00,
2013-05-27 18:05:00,61.8,36.0,30.14,North,355,1.0,12.0,38,0.00,,,0.00,VWS V14.01,2013-05-27 22:05:00,
2013-05-27 18:10:00,62.1,36.2,30.14,NNW,342,8.0,9.0,38,0.00,,,0.00,VWS V14.01,2013-05-27 22:10:00,
2013-05-27 18:15:00,61.8,37.2,30.14,NNW,337,3.0,11.0,40,0.00,,,0.00,VWS V14.01,2013-05-27 22:15:00,
2013-05-27 18:20:00,61.5,35.7,30.14,NNW,340,3.0,9.0,38,0.00,,,0.00,VWS V14.01,2013-05-27 22:20:00,
2013-05-27 18:25:00,61.3,34.8,30.14,NNW,344,3.0,12.0,37,0.00,,,0.00,VWS V14.01,2013-05-27 22:25:00,
2013-05-27 18:30:00,61.3,34.1,30.14,North,355,0.0,10.0,36,0.00,,,0.00,VWS V14.01,2013-05-27 22:30:00,
2013-05-27 18:35:00,61.5,37.0,30.14,NNW,341,4.0,10.0,40,0.00,,,0.00,VWS V14.01,2013-05-27 22:35:00,
2013-05-27 18:40:00,61.3,36.8,30.14,NNE,17,11.0,11.0,40,0.00,,,0.00,VWS V14.01,2013-05-27 22:40:00,
2013-05-27 18:45:00,61.0,35.2,30.14,North,5,4.0,11.0,38,0.00,,,0.00,VWS V14.01,2013-05-27 22:45:00,
2013-05-27 18:50:00,61.1,36.6,30.14,North,350,0.0,8.0,40,0.00,,,0.00,VWS V14.01,2013-05-27 22:50:00,
2013-05-27 18:55:00,61.1,36.6,30.15,NNW,342,2.0,9.0,40,0.00,,,0.00,VWS V14.01,2013-05-27 22:55:00,
2013-05-27 19:00:00,61.1,36.0,30.15,North,10,2.0,6.0,39,0.00,,,0.00,VWS V14.01,2013-05-27 23:00:00,
2013-05-27 19:05:00,61.1,36.6,30.15,North,360,0.0,6.0,40,0.00,,,0.00,VWS V14.01,2013-05-27 23:05:00,
2013-05-27 19:10:00,60.9,37.1,30.15,North,355,0.0,6.0,41,0.00,,,0.00,VWS V14.01,2013-05-27 23:10:00,
2013-05-27 19:15:00,60.7,36.9,30.15,North,5,0.0,7.0,41,0.00,,,0.00,VWS V14.01,2013-05-27 23:15:00,
2013-05-27 19:20:00,60.7,39.8,30.15,North,5,0.0,1.0,46,0.00,,,0.00,VWS V14.01,2013-05-27 23:20:00,
2013-05-27 19:25:00,60.5,36.7,30.15,North,355,0.0,5.0,41,0.00,,,0.00,VWS V14.01,2013-05-27 23:25:00,
2013-05-27 19:30:00,60.1,37.5,30.15,NNW,338,0.0,6.0,43,0.00,,,0.00,VWS V14.01,2013-05-27 23:30:00,
2013-05-27 19:35:00,59.6,39.4,30.16,NNW,337,0.0,6.0,47,0.00,,,0.00,VWS V14.01,2013-05-27 23:35:00,
2013-05-27 19:40:00,59.5,39.3,30.16,North,350,0.0,4.0,47,0.00,,,0.00,VWS V14.01,2013-05-27 23:40:00,
2013-05-27 19:45:00,59.1,38.9,30.16,NNW,332,0.0,4.0,47,0.00,,,0.00,VWS V14.01,2013-05-27 23:45:00,
2013-05-27 19:50:00,58.8,38.6,30.16,NNW,332,0.0,0.0,47,0.00,,,0.00,VWS V14.01,2013-05-27 23:50:00,
2013-05-27 19:55:00,58.4,37.7,30.16,NNW,338,0.0,1.0,46,0.00,,,0.00,VWS V14.01,2013-05-27 23:55:00,
2013-05-27 20:00:00,57.9,38.3,30.16,NNW,338,0.0,0.0,48,0.00,,,0.00,VWS V14.01,2013-05-28 00:00:00,
2013-05-27 20:05:00,57.1,38.1,30.16,NNW,338,0.0,0.0,49,0.00,,,0.00,VWS V14.01,2013-05-28 00:05:00,
2013-05-27 20:10:00,56.1,37.7,30.16,NNW,338,0.0,0.0,50,0.00,,,0.00,VWS V14.01,2013-05-28 00:10:00,
2013-05-27 20:15:00,55.3,37.5,30.16,NNW,338,0.0,1.0,51,0.00,,,0.00,VWS V14.01,2013-05-28 00:15:00,
2013-05-27 20:20:00,54.6,37.3,30.16,NNW,338,0.0,0.0,52,0.00,,,0.00,VWS V14.01,2013-05-28 00:20:00,
2013-05-27 20:25:00,54.1,37.4,30.16,NNW,338,0.0,0.0,53,0.00,,,0.00,VWS V14.01,2013-05-28 00:25:00,
2013-05-27 20:30:00,53.7,37.5,30.16,NNW,338,0.0,0.0,54,0.00,,,0.00,VWS V14.01,2013-05-28 00:30:00,
2013-05-27 20:35:00,53.3,37.1,30.16,NNW,338,0.0,0.0,54,0.00,,,0.00,VWS V14.01,2013-05-28 00:35:00,
2013-05-27 20:40:00,53.2,39.3,30.16,NNW,338,0.0,0.0,59,0.00,,,0.00,VWS V14.01,2013-05-28 00:40:00,
2013-05-27 20:45:00,52.7,37.5,30.16,NNW,338,0.0,0.0,56,0.00,,,0.00,VWS V14.01,2013-05-28 00:45:00,
2013-05-27 20:50:00,52.4,39.8,30.16,NNW,338,0.0,0.0,62,0.00,,,0.00,VWS V14.01,2013-05-28 00:50:00,
2013-05-27 20:55:00,51.5,39.3,30.16,NNW,338,0.0,1.0,63,0.00,,,0.00,VWS V14.01,2013-05-28 00:55:00,
2013-05-27 21:00:00,50.8,37.8,30.16,NNW,338,0.0,0.0,61,0.00,,,0.00,VWS V14.01,2013-05-28 01:00:00,
2013-05-27 21:05:00,50.8,37.0,30.16,NNW,338,0.0,0.0,59,0.00,,,0.00,VWS V14.01,2013-05-28 01:05:00,
2013-05-27 21:10:00,51.0,36.8,30.17,NNW,338,0.0,0.0,58,0.00,,,0.00,VWS V14.01,2013-05-28 01:10:00,
2013-05-27 21:15:00,51.3,37.9,30.17,NNW,338,0.0,1.0,60,0.00,,,0.00,VWS V14.01,2013-05-28 01:15:00,
2013-05-27 21:20:00,51.0,37.2,30.17,NNW,338,0.0,0.0,59,0.00,,,0.00,VWS V14.01,2013-05-28 01:20:00,
2013-05-27 21:25:00,51.1,37.3,30.17,NNW,338,0.0,0.0,59,0.00,,,0.00,VWS V14.01,2013-05-28 01:25:00,
2013-05-27 21:30:00,51.0,37.6,30.17,NNW,338,0.0,0.0,60,0.00,,,0.00,VWS V14.01,2013-05-28 01:30:00,
2013-05-27 21:35:00,50.6,38.5,30.17,NNW,338,0.0,0.0,63,0.00,,,0.00,VWS V14.01,2013-05-28 01:35:00,
2013-05-27 21:40:00,50.1,37.6,30.17,ESE,113,0.0,1.0,62,0.00,,,0.00,VWS V14.01,2013-05-28 01:40:00,
2013-05-27 21:45:00,49.9,37.8,30.17,ESE,113,0.0,1.0,63,0.00,,,0.00,VWS V14.01,2013-05-28 01:45:00,
2013-05-27 21:50:00,49.5,40.5,30.17,ESE,113,0.0,1.0,71,0.00,,,0.00,VWS V14.01,2013-05-28 01:50:00,
2013-05-27 21:55:00,48.5,38.4,30.17,ESE,113,0.0,1.0,68,0.00,,,0.00,VWS V14.01,2013-05-28 01:55:00,
2013-05-27 22:00:00,48.1,40.2,30.18,ESE,113,0.0,0.0,74,0.00,,,0.00,VWS V14.01,2013-05-28 02:00:00,
2013-05-27 22:05:00,48.3,38.6,30.18,ESE,113,0.0,1.0,69,0.00,,,0.00,VWS V14.01,2013-05-28 02:05:00,
2013-05-27 22:10:00,48.6,38.9,30.18,ESE,114,0.0,0.0,69,0.00,,,0.00,VWS V14.01,2013-05-28 02:10:00,
2013-05-27 22:15:00,48.5,39.9,30.18,ESE,114,0.0,0.0,72,0.00,,,0.00,VWS V14.01,2013-05-28 02:15:00,
2013-05-27 22:20:00,48.4,40.2,30.18,SSW,192,0.0,3.0,73,0.00,,,0.00,VWS V14.01,2013-05-28 02:20:00,
2013-05-27 22:25:00,48.1,39.5,30.18,SSW,192,0.0,3.0,72,0.00,,,0.00,VWS V14.01,2013-05-28 02:25:00,
2013-05-27 22:29:00,48.1,39.2,30.19,SSW,192,0.0,1.0,71,0.00,,,0.00,VWS V14.01,2013-05-28 02:29:00,
2013-05-27 22:34:00,47.9,39.0,30.18,SSW,192,0.0,1.0,71,0.00,,,0.00,VWS V14.01,2013-05-28 02:34:00,
2013-05-27 22:39:00,47.7,38.8,30.19,SSW,192,0.0,0.0,71,0.00,,,0.00,VWS V14.01,2013-05-28 02:39:00,
2013-05-27 22:44:00,47.5,40.0,30.19,SSW,192,0.0,0.0,75,0.00,,,0.00,VWS V14.01,2013-05-28 02:44:00,
2013-05-27 22:49:00,47.1,39.2,30.19,SSW,192,0.0,0.0,74,0.00,,,0.00,VWS V14.01,2013-05-28 02:49:00,
2013-05-27 22:54:00,46.9,38.7,30.19,SSW,192,0.0,0.0,73,0.00,,,0.00,VWS V14.01,2013-05-28 02:54:00,
2013-05-27 22:59:00,47.0,38.5,30.19,SSW,192,0.0,0.0,72,0.00,,,0.00,VWS V14.01,2013-05-28 02:59:00,
2013-05-27 23:04:00,47.4,38.5,30.19,SSW,192,0.0,0.0,71,0.00,,,0.00,VWS V14.01,2013-05-28 03:04:00,
2013-05-27 23:09:00,47.5,39.6,30.19,SSW,192,0.0,0.0,74,0.00,,,0.00,VWS V14.01,2013-05-28 03:09:00,
2013-05-27 23:14:00,47.2,39.0,30.19,SSW,192,0.0,0.0,73,0.00,,,0.00,VWS V14.01,2013-05-28 03:14:00,
2013-05-27 23:19:00,47.0,38.1,30.19,SSW,192,0.0,0.0,71,0.00,,,0.00,VWS V14.01,2013-05-28 03:19:00,
2013-05-27 23:24:00,47.0,39.2,30.19,SSW,192,0.0,0.0,74,0.00,,,0.00,VWS V14.01,2013-05-28 03:24:00,
2013-05-27 23:29:00,46.7,38.5,30.20,SSW,192,0.0,0.0,73,0.00,,,0.00,VWS V14.01,2013-05-28 03:29:00,
2013-05-27 23:34:00,46.4,38.2,30.20,SSW,192,0.0,1.0,73,0.00,,,0.00,VWS V14.01,2013-05-28 03:34:00,
2013-05-27 23:39:00,46.1,38.3,30.20,SSW,192,0.0,0.0,74,0.00,,,0.00,VWS V14.01,2013-05-28 03:39:00,
2013-05-27 23:44:00,45.9,38.1,30.20,SSW,192,0.0,0.0,74,0.00,,,0.00,VWS V14.01,2013-05-28 03:44:00,
2013-05-27 23:49:00,45.8,37.7,30.20,SSW,192,0.0,0.0,73,0.00,,,0.00,VWS V14.01,2013-05-28 03:49:00,
2013-05-27 23:54:00,45.7,37.5,30.20,SSW,192,0.0,0.0,73,0.00,,,0.00,VWS V14.01,2013-05-28 03:54:00,
2013-05-27 23:59:00,45.9,37.4,30.20,SSW,192,0.0,1.0,72,0.00,,,0.00,VWS V14.01,2013-05-28 03:59:00,